Time;durP1;ratioP1;P1;durP2;ratioP2;P2;SDS_P1;SDS_P2;PMS_P1;PMS_P2;Temp;Humidity;BMP_temperature;BMP_pressure;BME280_temperature;BME280_humidity;BME280_pressure;Samples;Min_cycle;Max_cycle;Signal;HPM_P1;HPM_P2
2020/12/05 00:01:08;;;;;;;74.67;40.40;;;;;;;3.62;70.95;98398.63;126039;1098;104569;-78
2020/12/05 00:03:35;;;;;;;64.50;33.03;;;;;;;3.64;71.35;98393.27;126065;1098;104453;-78
2020/12/05 00:06:02;;;;;;;64.10;32.40;;;;;;;3.64;71.22;98388.02;126091;1098;104432;-79
2020/12/05 00:08:30;;;;;;;58.60;30.47;;;;;;;3.65;70.63;98389.71;125827;1100;104480;-78
2020/12/05 00:10:57;;;;;;;59.25;32.80;;;;;;;3.65;71.16;98394.97;126071;1098;104878;-79
2020/12/05 00:13:25;;;;;;;59.27;31.23;;;;;;;3.60;70.84;98400.50;125891;1099;104529;-79
2020/12/05 00:15:52;;;;;;;57.88;30.55;;;;;;;3.57;70.83;98400.66;125869;1098;104548;-77
2020/12/05 00:18:20;;;;;;;130.65;79.85;;;;;;;3.56;71.27;98398.96;125872;1100;104574;-78
2020/12/05 00:20:47;;;;;;;95.87;55.17;;;;;;;3.58;71.21;98405.83;126624;1098;104551;-78
2020/12/05 00:23:15;;;;;;;67.77;34.27;;;;;;;3.61;71.37;98391.67;125801;1100;104900;-78
2020/12/05 00:25:42;;;;;;;59.87;31.13;;;;;;;3.68;70.91;98398.27;126009;1100;104472;-78
2020/12/05 00:28:09;;;;;;;57.57;30.93;;;;;;;3.72;71.63;98404.23;126068;1098;104878;-78
2020/12/05 00:30:36;;;;;;;57.57;29.50;;;;;;;3.77;71.19;98412.72;126066;1093;104439;-78
2020/12/05 00:33:04;;;;;;;54.73;29.60;;;;;;;3.80;71.08;98409.05;126148;1093;104548;-78
2020/12/05 00:35:31;;;;;;;51.70;25.10;;;;;;;3.73;70.80;98412.02;125860;1100;104913;-78
2020/12/05 00:37:59;;;;;;;54.83;27.57;;;;;;;3.60;70.51;98407.52;126094;1098;104421;-77
2020/12/05 00:40:27;;;;;;;53.03;28.83;;;;;;;3.52;71.10;98419.30;126137;1098;104442;-80
2020/12/05 00:42:54;;;;;;;60.13;29.47;;;;;;;3.51;71.34;98417.60;125918;1093;104618;-79
2020/12/05 00:45:21;;;;;;;54.95;29.15;;;;;;;3.51;70.95;98414.97;125937;1100;104528;-80
2020/12/05 00:47:48;;;;;;;56.33;29.10;;;;;;;3.50;71.21;98423.80;126142;1098;104437;-81
2020/12/05 00:50:16;;;;;;;59.43;29.77;;;;;;;3.46;71.38;98424.92;126036;1098;104524;-80
2020/12/05 00:52:43;;;;;;;58.70;29.70;;;;;;;3.40;70.71;98425.25;126297;1098;104455;-81
2020/12/05 00:55:11;;;;;;;58.73;29.98;;;;;;;3.41;71.58;98424.31;126542;1098;104419;-79
2020/12/05 00:57:38;;;;;;;84.30;47.60;;;;;;;3.43;71.32;98420.66;126056;1098;104414;-80
2020/12/05 01:00:08;;;;;;;66.20;36.47;;;;;;;3.43;71.12;98425.08;125884;1093;104567;-79
2020/12/05 01:02:35;;;;;;;59.87;30.77;;;;;;;3.47;71.27;98423.95;125930;1100;104416;-81
2020/12/05 01:05:02;;;;;;;53.50;27.87;;;;;;;3.50;70.81;98431.69;126071;1100;104577;-79
2020/12/05 01:07:29;;;;;;;56.67;28.37;;;;;;;3.45;70.48;98428.48;126093;1098;104448;-78
2020/12/05 01:09:56;;;;;;;56.30;28.70;;;;;;;3.47;70.83;98429.22;126113;1093;104440;-78
2020/12/05 01:12:24;;;;;;;55.50;29.53;;;;;;;3.43;70.52;98425.91;125801;1099;104472;-79
2020/12/05 01:14:52;;;;;;;51.57;26.67;;;;;;;3.43;71.18;98425.08;126066;1098;104523;-79
2020/12/05 01:17:26;;;;;;;52.57;27.60;;;;;;;3.39;70.92;98431.44;126912;1099;104628;-80
2020/12/05 01:19:52;;;;;;;53.23;28.05;;;;;;;3.29;70.37;98431.05;125865;1100;104632;-80
2020/12/05 01:22:21;;;;;;;56.10;29.23;;;;;;;3.18;70.95;98430.80;125857;1098;104417;-80
2020/12/05 01:24:49;;;;;;;50.33;25.67;;;;;;;3.09;71.07;98430.34;126095;1098;104445;-79
2020/12/05 01:27:17;;;;;;;50.03;26.80;;;;;;;3.06;70.51;98429.63;126127;1098;104428;-79
2020/12/05 01:29:46;;;;;;;53.47;26.80;;;;;;;3.06;70.86;98427.00;126106;1098;104657;-79
2020/12/05 01:32:13;;;;;;;51.37;25.97;;;;;;;3.07;70.78;98426.94;125864;1100;104417;-80
2020/12/05 01:34:40;;;;;;;53.73;25.47;;;;;;;3.11;70.81;98430.24;126121;1098;104414;-81
2020/12/05 01:37:08;;;;;;;51.93;27.23;;;;;;;3.16;70.90;98428.23;125844;1100;104506;-79
2020/12/05 01:39:37;;;;;;;207.83;108.90;;;;;;;3.25;70.90;98424.28;126031;1099;104522;-80
2020/12/05 01:42:05;;;;;;;79.97;42.47;;;;;;;3.35;71.08;98412.33;126162;1093;104474;-78
2020/12/05 01:44:33;;;;;;;58.40;30.03;;;;;;;3.42;71.37;98429.47;126075;1098;104865;-79
2020/12/05 01:47:02;;;;;;;52.33;28.27;;;;;;;3.45;71.25;98420.59;126110;1098;104446;-79
2020/12/05 01:49:31;;;;;;;51.30;27.27;;;;;;;3.46;70.86;98424.05;126025;1098;104528;-79
2020/12/05 01:52:01;;;;;;;52.10;27.20;;;;;;;3.40;70.84;98417.36;126212;1098;104446;-80
2020/12/05 01:54:29;;;;;;;53.70;26.23;;;;;;;3.38;71.10;98420.05;126121;1093;104416;-80
2020/12/05 01:57:00;;;;;;;47.43;25.83;;;;;;;3.32;70.83;98420.38;126094;1100;104519;-79
2020/12/05 01:59:29;;;;;;;48.83;25.73;;;;;;;3.30;71.31;98419.61;125872;1099;104672;-78
2020/12/05 02:02:04;;;;;;;67.57;38.37;;;;;;;3.25;70.77;98414.61;126155;1098;104487;-80
2020/12/05 02:04:53;;;;;;;74.33;42.37;;;;;;;3.24;70.90;98422.59;126202;1099;104484;-80
2020/12/05 02:07:43;;;;;;;52.43;27.23;;;;;;;3.22;70.75;98427.91;125916;1098;104554;-80
2020/12/05 02:10:15;;;;;;;51.43;25.70;;;;;;;3.24;70.91;98422.59;126034;1098;104520;-80
2020/12/05 02:13:00;;;;;;;51.98;24.20;;;;;;;3.24;70.72;98420.80;126133;1098;104411;-81
2020/12/05 02:15:31;;;;;;;49.93;26.50;;;;;;;3.28;70.96;98426.72;126155;1098;104500;-80
2020/12/05 02:18:02;;;;;;;49.03;25.10;;;;;;;3.28;70.64;98422.33;126276;1098;104542;-80
2020/12/05 02:20:34;;;;;;;47.70;24.67;;;;;;;3.24;70.69;98431.31;126478;1094;104557;-80
2020/12/05 02:23:06;;;;;;;48.90;26.93;;;;;;;3.21;70.82;98426.20;126030;1098;104907;-80
2020/12/05 02:25:34;;;;;;;53.03;27.23;;;;;;;3.22;71.38;98411.30;126146;1098;104481;-80
2020/12/05 02:28:06;;;;;;;86.73;48.53;;;;;;;3.23;71.27;98416.47;126986;1100;104894;-80
2020/12/05 02:30:37;;;;;;;69.33;36.80;;;;;;;3.26;71.15;98416.30;126130;1100;104576;-79
2020/12/05 02:33:05;;;;;;;58.87;32.60;;;;;;;3.27;71.14;98423.27;126114;1098;104563;-80
2020/12/05 02:35:32;;;;;;;52.60;27.83;;;;;;;3.25;70.60;98421.66;126074;1098;104478;-78
2020/12/05 02:38:18;;;;;;;52.70;25.23;;;;;;;3.22;70.58;98422.66;126074;1098;104945;-80
2020/12/05 02:40:45;;;;;;;48.83;26.87;;;;;;;3.18;71.28;98428.16;126080;1093;104919;-78
2020/12/05 02:43:12;;;;;;;50.10;25.43;;;;;;;3.19;71.27;98414.09;125903;1101;104560;-79
2020/12/05 02:45:39;;;;;;;48.77;26.37;;;;;;;3.20;70.84;98428.94;125891;1098;104542;-79
2020/12/05 02:48:09;;;;;;;48.45;25.60;;;;;;;3.24;71.11;98419.96;125815;1099;104676;-78
2020/12/05 02:50:37;;;;;;;47.43;25.60;;;;;;;3.28;71.02;98421.47;125859;1100;104532;-79
2020/12/05 02:53:04;;;;;;;49.60;27.10;;;;;;;3.34;71.39;98425.56;125835;1100;104417;-79
2020/12/05 02:55:31;;;;;;;46.20;25.17;;;;;;;3.34;71.27;98438.71;126199;1093;104423;-78
2020/12/05 02:57:58;;;;;;;47.67;26.00;;;;;;;3.34;70.88;98431.66;126068;1098;104584;-80
2020/12/05 03:00:25;;;;;;;47.25;24.00;;;;;;;3.33;71.25;98439.64;126910;1098;104426;-79
2020/12/05 03:02:52;;;;;;;46.75;24.40;;;;;;;3.30;71.08;98438.00;125887;1100;104595;-79
2020/12/05 03:05:19;;;;;;;47.90;25.90;;;;;;;3.28;71.12;98437.23;126093;1098;104548;-77
2020/12/05 03:07:46;;;;;;;45.87;23.83;;;;;;;3.20;70.63;98442.08;126211;1098;104436;-79
2020/12/05 03:10:14;;;;;;;44.53;22.77;;;;;;;3.14;70.95;98445.86;126190;1093;104474;-80
2020/12/05 03:12:41;;;;;;;49.70;24.90;;;;;;;3.09;71.19;98440.85;125879;1100;104429;-79
2020/12/05 03:15:08;;;;;;;46.40;24.05;;;;;;;3.11;70.90;98446.87;126103;1098;104542;-80
2020/12/05 03:17:35;;;;;;;44.00;22.50;;;;;;;3.11;71.20;98443.38;126338;1098;104390;-79
2020/12/05 03:20:06;;;;;;;36.90;18.35;;;;;;;2.97;70.77;98444.11;126197;1098;104570;-78
2020/12/05 03:22:33;;;;;;;46.90;23.10;;;;;;;2.77;70.09;98439.88;126118;1098;104420;-78
2020/12/05 03:25:02;;;;;;;42.30;22.97;;;;;;;2.65;70.99;98450.06;125945;1098;104446;-77
2020/12/05 03:27:29;;;;;;;44.40;22.95;;;;;;;2.59;70.56;98447.77;126148;1098;104945;-78
2020/12/05 03:29:56;;;;;;;48.23;24.07;;;;;;;2.52;70.81;98449.00;126128;1098;104387;-78
2020/12/05 03:32:30;;;;;;;44.53;24.13;;;;;;;2.47;70.65;98448.38;126060;1100;104560;-79
2020/12/05 03:34:59;;;;;;;41.83;21.60;;;;;;;2.37;70.59;98448.81;125890;1100;104478;-79
2020/12/05 03:37:28;;;;;;;41.33;22.47;;;;;;;2.29;70.69;98448.34;126160;1098;104607;-78
2020/12/05 03:39:56;;;;;;;43.50;23.20;;;;;;;2.28;70.62;98458.92;126154;1098;104603;-80
2020/12/05 03:42:22;;;;;;;45.17;21.90;;;;;;;2.21;71.09;98453.97;126095;1098;104576;-79
2020/12/05 03:44:49;;;;;;;45.33;22.43;;;;;;;2.19;71.22;98452.36;126065;1098;105057;-78
2020/12/05 03:47:16;;;;;;;48.30;25.23;;;;;;;2.24;70.86;98450.36;125882;1100;104503;-79
2020/12/05 03:49:43;;;;;;;46.30;23.50;;;;;;;2.31;70.66;98449.11;126525;1098;104478;-79
2020/12/05 03:52:10;;;;;;;42.20;22.77;;;;;;;2.40;71.35;98444.34;126178;1098;104410;-80
2020/12/05 03:54:37;;;;;;;45.93;25.67;;;;;;;2.45;71.44;98451.05;125888;1100;104885;-78
2020/12/05 03:57:04;;;;;;;46.73;23.83;;;;;;;2.52;71.04;98444.58;125858;1093;105003;-80
2020/12/05 03:59:31;;;;;;;46.43;25.10;;;;;;;2.52;71.29;98446.37;125881;1101;104882;-82
2020/12/05 04:01:59;;;;;;;44.43;22.97;;;;;;;2.52;70.99;98454.25;125926;1100;104563;-79
2020/12/05 04:04:26;;;;;;;48.03;24.27;;;;;;;2.53;71.03;98454.16;125845;1099;104544;-84
2020/12/05 04:06:53;;;;;;;48.60;25.13;;;;;;;2.53;71.25;98448.91;126071;1098;104647;-79
2020/12/05 04:09:20;;;;;;;45.77;23.10;;;;;;;2.50;71.39;98453.47;126002;1098;104423;-79
2020/12/05 04:11:47;;;;;;;47.27;24.90;;;;;;;2.50;71.24;98450.84;126134;1098;104421;-78
2020/12/05 04:14:14;;;;;;;46.43;24.17;;;;;;;2.48;71.18;98448.28;126054;1099;104436;-78
2020/12/05 04:16:41;;;;;;;45.78;24.25;;;;;;;2.52;71.19;98456.88;126038;1098;104493;-78
2020/12/05 04:19:07;;;;;;;48.73;24.40;;;;;;;2.50;70.89;98449.05;126034;1098;104468;-80
2020/12/05 04:21:34;;;;;;;47.50;25.17;;;;;;;2.53;70.95;98453.32;126035;1098;104423;-77
2020/12/05 04:24:01;;;;;;;45.60;24.03;;;;;;;2.55;71.14;98451.47;126034;1098;104497;-78
2020/12/05 04:26:28;;;;;;;44.77;24.00;;;;;;;2.56;70.96;98447.05;126015;1100;104445;-78
2020/12/05 04:28:55;;;;;;;43.37;21.07;;;;;;;2.46;70.24;98446.67;126001;1093;104521;-79
2020/12/05 04:31:23;;;;;;;44.67;21.73;;;;;;;2.35;70.35;98447.20;126213;1098;104486;-79
2020/12/05 04:33:50;;;;;;;40.90;20.67;;;;;;;2.21;70.42;98443.47;126057;1098;104504;-78
2020/12/05 04:36:17;;;;;;;35.53;17.43;;;;;;;2.13;70.56;98444.77;126051;1098;104477;-80
2020/12/05 04:38:44;;;;;;;42.33;21.37;;;;;;;2.02;71.15;98451.38;126073;1098;104644;-80
2020/12/05 04:41:11;;;;;;;42.33;21.37;;;;;;;2.00;70.67;98450.59;125848;1100;104500;-80
2020/12/05 04:43:41;;;;;;;46.20;23.50;;;;;;;2.10;71.68;98458.88;126018;1098;104917;-81
2020/12/05 04:46:12;;;;;;;43.10;22.60;;;;;;;2.25;71.61;98457.28;126421;1098;104426;-80
2020/12/05 04:48:41;;;;;;;41.33;21.93;;;;;;;2.36;71.29;98451.53;125914;1100;105041;-79
2020/12/05 04:51:17;;;;;;;39.80;22.07;;;;;;;2.41;71.52;98451.30;125918;1098;104522;-81
2020/12/05 04:53:48;;;;;;;41.40;21.30;;;;;;;2.44;70.76;98448.52;125817;1098;104608;-81
2020/12/05 04:56:16;;;;;;;45.77;23.43;;;;;;;2.45;70.89;98448.43;125872;1099;104537;-81
2020/12/05 04:58:48;;;;;;;43.73;23.77;;;;;;;2.47;71.55;98453.63;125871;1099;104545;-80
2020/12/05 05:01:18;;;;;;;45.47;23.03;;;;;;;2.45;71.37;98444.97;125834;1100;104600;-82
2020/12/05 05:03:45;;;;;;;40.77;21.30;;;;;;;2.43;71.43;98452.07;126190;1098;104747;-79
2020/12/05 05:06:21;;;;;;;41.70;22.13;;;;;;;2.44;71.30;98445.89;125816;1100;104701;-80
2020/12/05 05:08:48;;;;;;;44.03;21.60;;;;;;;2.46;71.55;98444.88;125967;1098;104418;-80
2020/12/05 05:11:17;;;;;;;39.57;21.83;;;;;;;2.49;71.08;98441.27;126022;1098;104471;-79
2020/12/05 05:14:15;;;;;;;41.90;22.80;;;;;;;2.42;71.20;98445.13;125843;1100;104484;-80
2020/12/05 05:16:42;;;;;;;40.70;23.00;;;;;;;2.40;71.13;98447.83;125815;1100;104483;-81
2020/12/05 05:19:27;;;;;;;42.07;22.47;;;;;;;2.41;71.33;98448.67;125870;1093;104574;-81
2020/12/05 05:21:54;;;;;;;44.33;22.53;;;;;;;2.40;71.12;98455.70;126068;1098;104551;-80
2020/12/05 05:24:23;;;;;;;44.13;23.67;;;;;;;2.36;71.47;98452.36;125777;1093;104529;-81
2020/12/05 05:27:05;;;;;;;44.60;23.55;;;;;;;2.32;70.85;98455.23;126160;1093;104544;-80
2020/12/05 05:29:37;;;;;;;40.53;21.73;;;;;;;2.27;71.03;98465.09;125815;1093;104551;-81
2020/12/05 05:32:19;;;;;;;38.87;22.13;;;;;;;2.26;71.52;98463.39;125823;1093;104694;-80
2020/12/05 05:34:47;;;;;;;45.30;22.63;;;;;;;2.26;70.76;98469.48;125740;1093;104506;-81
2020/12/05 05:37:18;;;;;;;42.00;22.97;;;;;;;2.30;71.59;98471.03;126350;1093;104414;-81
2020/12/05 05:39:55;;;;;;;44.43;23.77;;;;;;;2.34;71.13;98472.59;125983;1093;104435;-81
2020/12/05 05:42:37;;;;;;;44.53;23.77;;;;;;;2.40;71.08;98483.72;125791;1093;104487;-81
2020/12/05 05:45:25;;;;;;;44.70;24.87;;;;;;;2.44;71.14;98475.64;125773;1100;104593;-80
2020/12/05 05:48:02;;;;;;;42.10;23.70;;;;;;;2.38;71.43;98471.52;125671;1093;104417;-81
2020/12/05 05:50:32;;;;;;;43.67;22.93;;;;;;;2.31;71.29;98469.27;125747;1093;104551;-81
2020/12/05 05:53:09;;;;;;;45.83;25.13;;;;;;;2.19;71.27;98481.22;125860;1093;104430;-81
2020/12/05 05:55:43;;;;;;;40.77;22.13;;;;;;;2.08;71.14;98479.95;125962;1093;104541;-79
2020/12/05 05:58:12;;;;;;;39.53;22.20;;;;;;;2.02;71.56;98493.35;125926;1093;104909;-80
2020/12/05 06:00:45;;;;;;;41.53;23.00;;;;;;;2.06;71.25;98489.66;125990;1093;104478;-79
2020/12/05 06:03:27;;;;;;;40.30;22.73;;;;;;;2.10;71.65;98479.03;125890;1093;104557;-81
2020/12/05 06:05:59;;;;;;;41.37;22.57;;;;;;;2.17;71.25;98483.90;126025;1093;104432;-82
2020/12/05 06:08:29;;;;;;;45.43;24.27;;;;;;;2.19;71.50;98481.22;125852;1093;104517;-80
2020/12/05 06:10:59;;;;;;;42.33;22.27;;;;;;;2.21;71.69;98489.88;125990;1093;104487;-80
2020/12/05 06:13:30;;;;;;;43.07;23.33;;;;;;;2.17;71.51;98506.68;125750;1093;104570;-79
2020/12/05 06:16:00;;;;;;;45.77;23.83;;;;;;;2.14;71.04;98509.45;125749;1096;104513;-80
2020/12/05 06:18:28;;;;;;;42.17;22.07;;;;;;;2.10;71.21;98516.59;125913;1093;104471;-80
2020/12/05 06:20:58;;;;;;;41.53;21.27;;;;;;;2.10;71.47;98510.52;126122;1093;104717;-79
2020/12/05 06:23:51;;;;;;;42.40;22.53;;;;;;;2.13;71.51;98515.62;126014;1098;104422;-80
2020/12/05 06:26:28;;;;;;;44.40;24.20;;;;;;;2.11;71.49;98525.33;125712;1093;104541;-80
2020/12/05 06:28:57;;;;;;;44.67;24.83;;;;;;;2.10;71.58;98526.25;125792;1093;104469;-80
2020/12/05 06:31:40;;;;;;;44.37;24.53;;;;;;;2.07;71.61;98535.09;125949;1093;104442;-82
2020/12/05 06:34:11;;;;;;;46.27;24.67;;;;;;;2.01;71.13;98533.62;125816;1098;104461;-79
2020/12/05 06:36:42;;;;;;;47.50;26.03;;;;;;;1.98;71.24;98533.77;125869;1093;104424;-78
2020/12/05 06:39:13;;;;;;;49.83;25.57;;;;;;;2.03;71.74;98544.90;125783;1093;104519;-80
2020/12/05 06:41:42;;;;;;;50.00;25.93;;;;;;;2.02;71.97;98547.61;125840;1098;104411;-78
2020/12/05 06:44:19;;;;;;;49.57;24.93;;;;;;;2.04;71.36;98545.73;126126;1093;104552;-82
2020/12/05 06:46:52;;;;;;;45.80;25.70;;;;;;;2.08;71.84;98555.17;125709;1093;104539;-77
2020/12/05 06:49:46;;;;;;;47.78;25.10;;;;;;;2.16;71.60;98560.08;125845;1093;104718;-78
2020/12/05 06:52:25;;;;;;;44.98;22.95;;;;;;;2.27;71.76;98554.33;126005;1093;104578;-76
2020/12/05 06:55:15;;;;;;;45.47;24.83;;;;;;;2.33;71.33;98554.88;125756;1093;104519;-78
2020/12/05 06:57:43;;;;;;;41.40;23.20;;;;;;;2.34;71.79;98556.58;126051;1093;104477;-76
2020/12/05 07:00:17;;;;;;;48.07;24.23;;;;;;;2.41;71.28;98558.92;125875;1093;104625;-76
2020/12/05 07:02:57;;;;;;;45.20;24.47;;;;;;;2.43;71.74;98557.94;125836;1093;104524;-77
2020/12/05 07:05:34;;;;;;;48.03;26.03;;;;;;;2.45;71.14;98565.73;126400;1093;104442;-76
2020/12/05 07:08:41;;;;;;;43.73;24.07;;;;;;;2.44;72.03;98570.14;125978;1093;104441;-77
2020/12/05 07:11:12;;;;;;;49.85;23.80;;;;;;;2.42;71.07;98576.37;125953;1093;105224;-79
2020/12/05 07:13:44;;;;;;;44.13;24.40;;;;;;;2.41;71.73;98578.16;125971;1093;104413;-78
2020/12/05 07:16:24;;;;;;;46.17;24.10;;;;;;;2.46;72.14;98583.18;125719;1093;104487;-78
2020/12/05 07:18:59;;;;;;;46.37;23.97;;;;;;;2.50;71.83;98585.58;125756;1093;104548;-78
2020/12/05 07:21:30;;;;;;;46.40;24.53;;;;;;;2.56;70.94;98588.84;125813;1093;104522;-76
2020/12/05 07:23:59;;;;;;;46.90;25.10;;;;;;;2.62;72.20;98601.68;126192;1093;104413;-73
2020/12/05 07:26:27;;;;;;;46.10;25.00;;;;;;;2.67;71.67;98602.31;126545;1093;104504;-76
2020/12/05 07:28:56;;;;;;;48.90;25.93;;;;;;;2.75;72.18;98607.19;126314;1098;104413;-77
2020/12/05 07:31:25;;;;;;;47.73;26.13;;;;;;;2.81;71.19;98607.77;126149;1093;104484;-76
2020/12/05 07:33:54;;;;;;;44.83;23.83;;;;;;;2.84;71.94;98609.38;125968;1100;104452;-75
2020/12/05 07:36:22;;;;;;;45.87;23.50;;;;;;;2.78;71.83;98604.42;126056;1100;105016;-76
2020/12/05 07:38:49;;;;;;;48.70;24.60;;;;;;;2.76;70.99;98606.27;126045;1100;104548;-77
2020/12/05 07:41:19;;;;;;;50.58;24.43;;;;;;;2.77;71.17;98608.84;126047;1099;104545;-78
2020/12/05 07:43:48;;;;;;;47.90;24.15;;;;;;;2.85;71.96;98607.62;125881;1100;104449;-77
2020/12/05 07:46:16;;;;;;;50.87;27.13;;;;;;;2.93;72.28;98605.45;126178;1099;104522;-78
2020/12/05 07:48:43;;;;;;;47.53;25.53;;;;;;;3.03;72.09;98611.13;126901;1099;104542;-78
2020/12/05 07:51:13;;;;;;;47.53;25.40;;;;;;;3.11;72.10;98615.06;125964;1098;104426;-79
2020/12/05 07:53:42;;;;;;;43.57;24.20;;;;;;;3.28;71.83;98613.36;125852;1098;104484;-77
2020/12/05 07:56:12;;;;;;;46.57;25.00;;;;;;;3.43;72.07;98619.65;125890;1100;104567;-78
2020/12/05 07:58:54;;;;;;;46.90;26.15;;;;;;;3.51;72.00;98627.14;126057;1098;104522;-77
2020/12/05 08:01:24;;;;;;;47.00;26.03;;;;;;;3.60;72.21;98626.67;126177;1093;103282;-78
2020/12/05 08:04:26;;;;;;;46.23;25.70;;;;;;;3.69;71.86;98633.23;126103;1098;104632;-78
2020/12/05 08:07:01;;;;;;;51.27;26.27;;;;;;;3.79;71.76;98637.09;125908;1101;104462;-79
2020/12/05 08:09:36;;;;;;;53.63;28.30;;;;;;;3.87;71.72;98634.89;126216;1099;104458;-77
2020/12/05 08:12:10;;;;;;;45.77;25.53;;;;;;;3.88;71.96;98633.97;126013;1099;104945;-77
2020/12/05 08:14:38;;;;;;;;;;;;;;;3.94;71.67;98640.70;126012;1098;104420;-77
2020/12/05 08:17:05;;;;;;;45.03;25.60;;;;;;;4.00;72.09;98634.26;126199;1098;104416;-79
2020/12/05 08:19:34;;;;;;;46.73;25.40;;;;;;;4.08;71.97;98639.98;126024;1098;104488;-80
2020/12/05 08:22:08;;;;;;;47.93;24.50;;;;;;;4.16;72.31;98643.05;126083;1099;104605;-77
2020/12/05 08:24:38;;;;;;;48.40;26.57;;;;;;;4.28;72.28;98638.08;125838;1100;104490;-77
2020/12/05 08:27:06;;;;;;;48.00;25.83;;;;;;;4.36;72.33;98635.02;125885;1100;104602;-80
2020/12/05 08:29:34;;;;;;;46.73;26.07;;;;;;;4.43;71.98;98636.39;125967;1098;104464;-80
2020/12/05 08:32:01;;;;;;;46.70;25.00;;;;;;;4.49;71.87;98641.30;126013;1098;104414;-79
2020/12/05 08:34:31;;;;;;;44.17;24.67;;;;;;;4.58;71.95;98651.34;126125;1098;104560;-78
2020/12/05 08:37:01;;;;;;;43.00;24.53;;;;;;;4.71;72.01;98650.67;126131;1099;104484;-80
2020/12/05 08:39:32;;;;;;;44.10;24.27;;;;;;;4.83;72.21;98651.77;126704;1098;104478;-80
2020/12/05 08:42:00;;;;;;;39.17;22.20;;;;;;;5.02;72.23;98646.31;126198;1098;104539;-78
2020/12/05 08:44:30;;;;;;;43.90;22.93;;;;;;;5.18;72.20;98648.92;126081;1100;104631;-80
2020/12/05 08:47:08;;;;;;;40.17;22.10;;;;;;;5.37;71.96;98651.34;126124;1099;103326;-81
2020/12/05 08:49:36;;;;;;;43.43;22.70;;;;;;;5.61;71.98;98646.42;126088;1098;104462;-79
2020/12/05 08:52:05;;;;;;;43.00;24.17;;;;;;;5.86;71.88;98647.62;126038;1098;104560;-80
2020/12/05 08:54:48;;;;;;;44.93;23.83;;;;;;;6.14;72.48;98645.96;126851;1099;103207;-79
2020/12/05 08:57:16;;;;;;;43.40;25.23;;;;;;;6.46;71.87;98651.04;126030;1098;104449;-80
2020/12/05 08:59:44;;;;;;;43.73;23.50;;;;;;;6.73;71.93;98646.76;126039;1098;104449;-82
2020/12/05 09:02:15;;;;;;;45.03;24.73;;;;;;;7.00;72.11;98642.33;126873;1098;104945;-79
2020/12/05 09:04:42;;;;;;;44.73;24.07;;;;;;;7.37;72.24;98640.86;125966;1098;104439;-77
2020/12/05 09:07:12;;;;;;;45.90;24.50;;;;;;;7.78;71.50;98639.88;126038;1098;104614;-76
2020/12/05 09:09:40;;;;;;;43.97;25.57;;;;;;;8.20;71.56;98637.86;125981;1098;104996;-82
2020/12/05 09:12:10;;;;;;;47.73;25.63;;;;;;;8.61;71.24;98637.72;125866;1098;104412;-76
2020/12/05 09:14:38;;;;;;;44.10;25.53;;;;;;;9.00;71.30;98637.61;126051;1098;104523;-84
2020/12/05 09:17:27;;;;;;;46.50;26.43;;;;;;;9.31;71.48;98635.34;126010;1098;104538;-78
2020/12/05 09:20:18;;;;;;;44.60;26.40;;;;;;;9.53;71.27;98627.48;125801;1100;104659;-82
2020/12/05 09:22:49;;;;;;;46.90;28.90;;;;;;;9.75;71.69;98628.48;125900;1098;104561;-85
2020/12/05 09:25:28;;;;;;;57.50;33.40;;;;;;;9.91;71.35;98630.81;125884;1098;104509;-79
2020/12/05 09:27:56;;;;;;;72.80;40.60;;;;;;;10.02;71.27;98631.80;126004;1100;104420;-84
2020/12/05 09:30:25;;;;;;;59.90;35.37;;;;;;;10.15;71.66;98627.23;126169;1093;104545;-77
2020/12/05 09:32:53;;;;;;;52.27;30.13;;;;;;;10.24;71.81;98626.48;126054;1098;104407;-78
2020/12/05 09:35:24;;;;;;;52.87;30.77;;;;;;;10.30;71.01;98630.49;125989;1098;104432;-81
2020/12/05 09:37:52;;;;;;;53.10;28.90;;;;;;;10.34;71.98;98629.28;126110;1098;104557;-79
2020/12/05 09:40:21;;;;;;;52.25;30.95;;;;;;;10.40;71.80;98617.34;126047;1098;104599;-80
2020/12/05 09:42:49;;;;;;;55.10;31.10;;;;;;;10.43;71.67;98615.27;126176;1098;104413;-80
2020/12/05 09:45:16;;;;;;;52.30;29.70;;;;;;;10.49;71.09;98605.12;125885;1099;105002;-79
2020/12/05 09:47:44;;;;;;;52.03;29.02;;;;;;;10.55;71.22;98608.16;125821;1099;104532;-75
2020/12/05 09:50:12;;;;;;;47.67;28.03;;;;;;;10.58;71.01;98596.41;126087;1098;104513;-78
2020/12/05 09:52:40;;;;;;;49.97;28.30;;;;;;;10.63;71.60;98596.89;125882;1100;104491;-76
2020/12/05 09:55:07;;;;;;;47.50;27.07;;;;;;;10.69;71.23;98601.72;126040;1098;104520;-79
2020/12/05 09:57:34;;;;;;;49.07;28.00;;;;;;;10.75;70.84;98596.88;126075;1093;105727;-78
2020/12/05 10:00:06;;;;;;;54.80;31.15;;;;;;;10.80;70.81;98589.38;125929;1100;104427;-78
2020/12/05 10:02:33;;;;;;;47.40;28.60;;;;;;;10.85;71.32;98585.35;125882;1100;104529;-77
2020/12/05 10:05:00;;;;;;;46.83;27.60;;;;;;;10.87;71.55;98591.39;126099;1098;104420;-77
2020/12/05 10:07:27;;;;;;;44.80;26.57;;;;;;;10.85;70.67;98584.49;125928;1101;104446;-78
2020/12/05 10:09:54;;;;;;;48.05;27.15;;;;;;;10.85;71.48;98588.02;126195;1098;104416;-78
2020/12/05 10:12:21;;;;;;;44.25;25.20;;;;;;;10.90;71.10;98594.78;125961;1098;104407;-77
2020/12/05 10:14:48;;;;;;;46.87;26.97;;;;;;;10.99;70.77;98594.03;126105;1098;104480;-78
2020/12/05 10:17:15;;;;;;;49.90;26.63;;;;;;;11.04;70.82;98597.13;126161;1098;104407;-77
2020/12/05 10:19:42;;;;;;;61.77;40.27;;;;;;;11.10;70.99;98598.46;125975;1098;104517;-77
2020/12/05 10:22:21;;;;;;;48.90;29.43;;;;;;;11.20;71.43;98595.88;126056;1099;104494;-78
2020/12/05 10:24:49;;;;;;;47.07;27.30;;;;;;;11.24;70.97;98590.16;126040;1098;104929;-77
2020/12/05 10:27:17;;;;;;;45.83;25.67;;;;;;;11.31;70.91;98599.33;126647;1100;104472;-78
2020/12/05 10:29:44;;;;;;;44.10;25.37;;;;;;;11.42;71.00;98592.27;126036;1098;104535;-78
2020/12/05 10:32:10;;;;;;;55.73;33.13;;;;;;;11.52;70.98;98595.86;126146;1098;104413;-77
2020/12/05 10:34:38;;;;;;;49.60;29.10;;;;;;;11.65;71.15;98602.78;125877;1100;104446;-76
2020/12/05 10:37:05;;;;;;;48.90;28.10;;;;;;;11.72;71.06;98596.83;126187;1098;104482;-77
2020/12/05 10:39:32;;;;;;;47.63;26.53;;;;;;;11.78;70.96;98602.61;126086;1098;104439;-85
2020/12/05 10:42:00;;;;;;;47.27;27.73;;;;;;;11.86;70.54;98602.78;126327;1100;104503;-75
2020/12/05 10:44:27;;;;;;;47.40;27.97;;;;;;;11.93;70.43;98598.61;126171;1093;104446;-75
2020/12/05 10:46:54;;;;;;;58.40;34.67;;;;;;;11.95;70.88;98591.33;126018;1098;104485;-75
2020/12/05 10:49:23;;;;;;;141.03;90.37;;;;;;;12.01;69.87;98598.84;126137;1093;104410;-75
2020/12/05 10:51:50;;;;;;;58.15;35.23;;;;;;;12.06;70.57;98587.77;125938;1100;104558;-74
2020/12/05 10:54:18;;;;;;;50.53;29.23;;;;;;;12.09;70.11;98589.34;126637;1099;104420;-76
2020/12/05 10:56:45;;;;;;;53.67;29.30;;;;;;;12.14;69.94;98579.12;125907;1100;104577;-75
2020/12/05 10:59:12;;;;;;;51.47;29.33;;;;;;;12.24;69.79;98592.48;125876;1100;104985;-77
2020/12/05 11:01:41;;;;;;;51.70;29.55;;;;;;;12.32;69.40;98587.33;126128;1098;104467;-76
2020/12/05 11:04:08;;;;;;;54.03;29.60;;;;;;;12.34;70.27;98580.87;125973;1099;104877;-79
2020/12/05 11:06:36;;;;;;;51.03;28.53;;;;;;;12.42;69.73;98590.02;125854;1093;105003;-76
2020/12/05 11:09:03;;;;;;;48.23;28.03;;;;;;;12.48;69.82;98586.82;125900;1100;104323;-73
2020/12/05 11:11:34;;;;;;;45.70;27.00;;;;;;;12.51;70.18;98582.05;126106;1094;104914;-74
2020/12/05 11:14:02;;;;;;;46.73;26.97;;;;;;;12.56;69.71;98576.31;125866;1093;104411;-73
2020/12/05 11:16:29;;;;;;;41.53;23.67;;;;;;;12.61;69.94;98571.42;125948;1093;104408;-73
2020/12/05 11:18:56;;;;;;;36.97;19.80;;;;;;;12.70;69.69;98576.89;125819;1093;104436;-75
2020/12/05 11:21:23;;;;;;;29.77;15.40;;;;;;;12.78;69.46;98567.23;125747;1093;104417;-73